KGRK/GRK METAR and TAF weather

Enter ICAO airport designator
Station Type Date Time Source
KGRK METAR 2021/10/24 21:16 UTC NOAA

KGRK 242116Z AUTO 15008KT 9SM SCT037 29/20 A2979 RMK AO2 SLP078


Station Type Date Time Source
KGRK Decoded METAR 2021/10/24 21:16 UTC NOAA

Fort Hood, Robert Gray AAF Ft Hood, TX, United States (KGRK) 31-04N 097-49W
Oct 24, 2021 - 05:16 PM EDT / 2021.10.24 2116 UTC
Wind: from the SSE (150 degrees) at 9 MPH (8 KT):0
Visibility: 9 mile(s):0
Sky conditions: partly cloudy
Temperature: 84 F (29 C)
Dew Point: 68 F (20 C)
Relative Humidity: 58%
Pressure (altimeter): 29.79 in. Hg (1008 hPa)
ob: KGRK 242116Z AUTO 15008KT 9SM SCT037 29/20 A2979 RMK AO2 SLP078
cycle: 21

Station Type Date Time Source
KGRK TAF 2021/10/24 17:52 UTC NOAA

TAF
AMD KGRK 241740Z 2417/2522 15010G15KT 9999 SCT020 QNH2980INS
BECMG 2418/2419 23010G15KT 9999 SCT035 QNH2983INS
BECMG 2508/2509 29006KT 9999 SKC QNH2995INS
BECMG 2510/2511 29006KT 6000 BR SCT010 QNH3000INS
TEMPO 2513/2516 4800 BR SCT008
BECMG 2517/2518 VRB06KT 9999 NSW FEW015 QNH2999INS TX29/2421Z TN20/2512Z

Example: see airport list